Accueil en_GB de_DE fr_FR  

18.10.17 23:40 UTC   Mobile
Tarifs
FAQ (Foire aux questions)

 
TopMeteo
Nom d'utilisateur Mot de passe  



La recherche de l'itinéraire n'est disponible qu'aux utilisateurs avec un abonnement actif.

Nous vous affichons les endroits standard. Pour mieux comprendre les rapports de temps de METAR cf. Wikipedia.


EDDG Münster Osnabrück Flughafen TAF/L

23:20Z
AMD 181945Z 1819/1918 VRB03KT 4000 BR NSC
TEMPO 1819/1907 0500 BCFG PROB30 ; TEMPO 1820/1906 0200 FG BKN001 ; BECMG 1907/1910 14005KT CAVOK
VRB02KT 0250 R25/0250V0600N FG SCT001 10/10 Q1013 TEMPO BKN001
KBUF Greater Buffalo International TAF/L



22:54Z
AMD 182104Z 1821/1918 23010KT P6SM SKC
FM190400 19010G18KT P6SM SKC WS020/24040KT
FM191300 22014G27KT P6SM FEW250
FM191300 22014G27KT P6SM FEW250
20006KT 10SM FEW150 14/10 A3018 RMK AO2 SLP221 T01390100
KPIT Greater Pittsburgh International TAF/L

22:51Z
AMD 182055Z 1821/1924 18005KT P6SM SKC
FM191600 23008G16KT P6SM SKC
00000KT 10SM FEW250 18/05 A3023 RMK AO2 SLP244 T01830050
KAXH Houston Southwest 23:15Z AUTO 10005KT 10SM CLR 25/17 A3009 RMK AO2 T02470171
LIMC Milano/Malpensa TAF/L

23:20Z
181700Z 1818/1924 VRB05KT 4000 BR NSC
TEMPO 1822/1907 1500 BCFG ; BECMG 1907/1909 7000 ; BECMG 1913/1916 5000 BR
01005KT 3000 BR NSC 10/09 Q1020 NOSIG
LOWK Klagenfurt-Flughafen TAF/L

23:20Z
181715Z 1818/1918 VRB02KT CAVOK TX19/1914Z TN05/1906Z
TEMPO 1902/1909 0500 BCFG SCT002 PROB40 ; TEMPO 1905/1908 0300 FG VV001
AUTO 31003KT 270V330 9999 NCD 07/06 Q1018
FYWB Walvis Bay 23:00Z AUTO 00000KT //// // ////// 12/09 Q1020
FBFT Francistown TAF/S
19:00Z
180600Z 1809/1818 08010KT 9999 SCT025
10012KT 070V130 CAVOK 22/14 Q1018

Data source: ftp://tgftp.nws.noaa.gov/SL.us008001
"Data is provided as a public service by NOAA's National Weather Service (NWS) and is considered public information and may be distributed or copied."
 
 
CGV
Mentions légales
Qui sommes nous?
Simulation numérique: 18 UTC - Prévision: Di 22.10.17 17:00